Schreiber, Canada
Current Conditions -  °F | °C
As of 5:00 PM on Tuesday 25 Nov 2014 (Local Time) from CYSP Reporting Station
Broken Clouds Broken Clouds  
Wind Chill: 14°   Ceiling: 11000
Heat Index: 14°   Visibility: 15mi
Dew Point: 10°   Wind: 3mph
Humidity: 86%   Direction: 330°NNW
Pressure: 29.93"   Gusts: NA
Location:  48.8°N, 87.27°W
Report Text: CYSP 252200Z 33003KT 15SM SCT024 BKN110 M10/M12 A2993 RMK SC4AC3 LAST OBS/NEXT 261300UTC SLP161
Loading
Personal Weather Stations






























Interactive Weather Map New forecast layout! Learn more

10-Day Weather Forecast

Advertisements
Track Severe Weather on mobile